createdAt,value
2018-09-23T00:00:33.543Z,101225.32
2018-09-23T00:03:01.705Z,101222.93
2018-09-23T00:05:29.910Z,101226.93
2018-09-23T00:07:58.099Z,101225.83
2018-09-23T00:10:26.272Z,101223.64
2018-09-23T00:12:54.443Z,101231.61
2018-09-23T00:15:22.593Z,101229.32
2018-09-23T00:17:50.710Z,101232.78
2018-09-23T00:20:18.822Z,101230.97
2018-09-23T00:22:46.954Z,101227.78
2018-09-23T00:25:15.130Z,101229.17
2018-09-23T00:27:43.407Z,101218.56
2018-09-23T00:30:11.586Z,101226.55
2018-09-23T00:32:39.737Z,101229.43
2018-09-23T00:35:07.903Z,101224.48
2018-09-23T00:37:36.103Z,101215.54
2018-09-23T00:40:04.712Z,101218.63
2018-09-23T00:42:32.869Z,101221.76
2018-09-23T00:45:01.140Z,101211.17
2018-09-23T00:47:29.275Z,101215.97
2018-09-23T00:49:57.409Z,101210.14
2018-09-23T00:52:25.667Z,101218.06
2018-09-23T00:54:53.867Z,101219.36
2018-09-23T00:57:22.040Z,101214.27
2018-09-23T00:59:50.367Z,101214.48
2018-09-23T01:02:18.775Z,101213.57
2018-09-23T01:04:46.915Z,101211.78
2018-09-23T01:07:15.091Z,101202.56
2018-09-23T01:09:43.301Z,101207.17
2018-09-23T01:12:11.515Z,101204.88
2018-09-23T01:14:39.731Z,101201.45
2018-09-23T01:17:08.497Z,101203.05
2018-09-23T01:19:37.160Z,101198.11
2018-09-23T01:22:05.662Z,101199.35
2018-09-23T01:24:33.867Z,101198.47
2018-09-23T01:27:02.019Z,101192.05
2018-09-23T01:29:30.168Z,101193.80
2018-09-23T01:31:58.455Z,101193.71
2018-09-23T01:34:26.635Z,101197.45
2018-09-23T01:36:54.781Z,101200.87
2018-09-23T01:39:22.923Z,101191.71
2018-09-23T01:41:51.097Z,101189.92
2018-09-23T01:44:19.327Z,101183.06
2018-09-23T01:46:47.503Z,101179.10
2018-09-23T01:49:15.651Z,101170.40
2018-09-23T01:51:43.847Z,101165.08
2018-09-23T01:54:11.989Z,101167.59
2018-09-23T01:56:40.363Z,101168.30
2018-09-23T01:59:08.688Z,101171.05
2018-09-23T02:01:36.859Z,101166.98
2018-09-23T02:04:05.075Z,101175.11
2018-09-23T02:06:33.347Z,101177.95
2018-09-23T02:09:01.521Z,101174.70
2018-09-23T02:11:29.755Z,101172.06
2018-09-23T02:13:57.905Z,101163.30
2018-09-23T02:16:26.070Z,101161.73
2018-09-23T02:18:54.315Z,101165.48
2018-09-23T02:21:22.506Z,101168.08
2018-09-23T02:23:50.685Z,101162.36
2018-09-23T02:26:18.965Z,101161.77
2018-09-23T02:28:47.215Z,101165.91
2018-09-23T02:31:15.489Z,101165.41
2018-09-23T02:33:43.624Z,101166.26
2018-09-23T02:36:11.832Z,101162.13
2018-09-23T02:38:39.985Z,101155.00
2018-09-23T02:41:08.158Z,101153.11
2018-09-23T02:43:36.285Z,101158.70
2018-09-23T02:46:04.432Z,101154.05
2018-09-23T02:48:32.605Z,101150.38
2018-09-23T02:51:00.759Z,101143.48
2018-09-23T02:53:28.930Z,101140.61
2018-09-23T02:55:57.255Z,101148.25
2018-09-23T02:58:25.471Z,101148.67
2018-09-23T03:00:53.741Z,101143.80
2018-09-23T03:03:22.805Z,101140.19
2018-09-23T03:05:51.008Z,101137.39
2018-09-23T03:08:19.389Z,101135.44
2018-09-23T03:10:47.644Z,101130.78
2018-09-23T03:13:15.869Z,101129.22
2018-09-23T03:15:44.226Z,101129.05
2018-09-23T03:18:12.369Z,101122.55
2018-09-23T03:20:40.712Z,101126.30
2018-09-23T03:23:08.927Z,101123.36
2018-09-23T03:25:37.055Z,101126.72
2018-09-23T03:28:05.428Z,101123.20
2018-09-23T03:30:33.652Z,101130.12
2018-09-23T03:33:01.869Z,101132.09
2018-09-23T03:35:30.087Z,101134.36
2018-09-23T03:37:58.410Z,101140.26
2018-09-23T03:40:26.575Z,101137.77
2018-09-23T03:42:54.959Z,101130.28
2018-09-23T03:45:23.238Z,101125.44
2018-09-23T03:47:51.408Z,101124.14
2018-09-23T03:50:19.601Z,101117.63
2018-09-23T03:52:47.775Z,101113.22
2018-09-23T03:55:16.019Z,101116.20
2018-09-23T03:57:44.175Z,101119.89
2018-09-23T04:00:12.339Z,101123.04
2018-09-23T04:02:40.599Z,101114.16
2018-09-23T04:05:08.771Z,101107.17
2018-09-23T04:07:36.908Z,101108.19
2018-09-23T04:10:05.088Z,101115.15
2018-09-23T04:12:33.251Z,101107.66
2018-09-23T04:15:01.423Z,101115.39
2018-09-23T04:17:29.575Z,101117.54
2018-09-23T04:19:57.723Z,101120.35
2018-09-23T04:22:25.824Z,101118.59
2018-09-23T04:24:54.022Z,101116.94
2018-09-23T04:27:22.216Z,101113.48
2018-09-23T04:29:50.367Z,101114.95
2018-09-23T04:32:18.635Z,101114.63
2018-09-23T04:34:46.871Z,101118.42
2018-09-23T04:37:15.179Z,101114.08
2018-09-23T04:39:43.346Z,101118.64
2018-09-23T04:42:11.705Z,101101.47
2018-09-23T04:44:39.929Z,101101.73
2018-09-23T04:47:08.145Z,101096.52
2018-09-23T04:49:36.299Z,101100.42
2018-09-23T04:52:04.443Z,101101.34
2018-09-23T04:54:32.592Z,101096.75
2018-09-23T04:57:00.747Z,101102.28
2018-09-23T04:59:29.039Z,101099.34
2018-09-23T05:01:57.225Z,101096.88
2018-09-23T05:04:25.463Z,101102.39
2018-09-23T05:06:53.670Z,101101.06
2018-09-23T05:09:21.807Z,101093.09
2018-09-23T05:11:50.035Z,101088.32
2018-09-23T05:14:18.172Z,101087.52
2018-09-23T05:16:46.379Z,101093.98
2018-09-23T05:19:14.613Z,101083.19
2018-09-23T05:21:42.737Z,101085.88
2018-09-23T05:24:10.938Z,101083.44
2018-09-23T05:26:39.199Z,101078.10
2018-09-23T05:29:07.399Z,101071.09
2018-09-23T05:31:35.577Z,101068.62
2018-09-23T05:34:03.844Z,101066.47
2018-09-23T05:36:32.036Z,101068.48
2018-09-23T05:39:00.280Z,101071.35
2018-09-23T05:41:28.511Z,101076.83
2018-09-23T05:43:56.751Z,101075.38
2018-09-23T05:46:24.929Z,101068.02
2018-09-23T05:48:53.326Z,101052.84
2018-09-23T05:51:21.499Z,101065.11
2018-09-23T05:53:49.692Z,101060.20
2018-09-23T05:56:17.861Z,101047.33
2018-09-23T05:58:45.985Z,101047.70
2018-09-23T06:01:14.205Z,101044.72
2018-09-23T06:03:42.385Z,101048.35
2018-09-23T06:06:10.595Z,101046.70
2018-09-23T06:08:38.787Z,101043.45
2018-09-23T06:11:06.953Z,101046.69
2018-09-23T06:13:35.060Z,101045.27
2018-09-23T06:16:03.227Z,101039.47
2018-09-23T06:18:31.459Z,101048.64
2018-09-23T06:20:59.652Z,101045.30
2018-09-23T06:23:27.899Z,101049.72
2018-09-23T06:25:56.078Z,101046.17
2018-09-23T06:28:24.249Z,101049.77
2018-09-23T06:30:52.459Z,101045.45
2018-09-23T06:33:20.989Z,101046.91
2018-09-23T06:35:49.160Z,101044.95
2018-09-23T06:38:18.003Z,101036.33
2018-09-23T06:40:46.259Z,101043.98
2018-09-23T06:43:14.401Z,101059.84
2018-09-23T06:45:42.701Z,101059.57
2018-09-23T06:48:10.804Z,101069.30
2018-09-23T06:50:39.655Z,101072.89
2018-09-23T06:53:07.905Z,101062.17
2018-09-23T06:55:36.221Z,101047.88
2018-09-23T06:58:04.422Z,101052.14
2018-09-23T07:00:32.679Z,101042.71
2018-09-23T07:03:00.820Z,101048.62
2018-09-23T07:05:29.063Z,101056.47
2018-09-23T07:07:57.300Z,101060.50
2018-09-23T07:10:25.510Z,101054.78
2018-09-23T07:12:53.973Z,101048.62
2018-09-23T07:15:22.109Z,101050.91
2018-09-23T07:17:50.292Z,101051.46
2018-09-23T07:20:18.527Z,101047.94
2018-09-23T07:22:46.701Z,101033.05
2018-09-23T07:25:14.912Z,101025.63
2018-09-23T07:27:43.082Z,101031.80
2018-09-23T07:30:11.331Z,101036.92
2018-09-23T07:32:39.663Z,101042.55
2018-09-23T07:35:07.853Z,101047.66
2018-09-23T07:37:36.441Z,101037.55
2018-09-23T07:40:04.952Z,101047.39
2018-09-23T07:42:33.221Z,101049.94
2018-09-23T07:45:02.150Z,101052.01
2018-09-23T07:50:04.883Z,101059.67
2018-09-23T07:52:33.017Z,101058.91
2018-09-23T07:55:01.200Z,101058.53
2018-09-23T07:57:30.143Z,101054.04
2018-09-23T07:59:58.303Z,101052.82
2018-09-23T08:02:26.739Z,101042.95
2018-09-23T08:04:54.935Z,101046.13
2018-09-23T08:07:23.147Z,101049.27
2018-09-23T08:09:51.284Z,101033.16
2018-09-23T08:12:19.564Z,101022.25
2018-09-23T08:14:48.300Z,101026.78
2018-09-23T08:17:16.242Z,101020.91
2018-09-23T08:19:44.476Z,101017.45
2018-09-23T08:22:12.616Z,101004.45
2018-09-23T08:24:40.815Z,101008.27
2018-09-23T08:27:09.194Z,101006.31
2018-09-23T08:29:37.360Z,101012.69
2018-09-23T08:32:05.710Z,101009.78
2018-09-23T08:34:33.950Z,101002.10
2018-09-23T08:37:02.712Z,100997.63
2018-09-23T08:39:30.912Z,100989.27
2018-09-23T08:41:59.116Z,100986.57
2018-09-23T08:44:28.188Z,100991.37
2018-09-23T08:46:56.469Z,100993.52
2018-09-23T08:49:24.934Z,100996.16
2018-09-23T08:51:53.209Z,100994.73
2018-09-23T08:54:21.419Z,100988.31
2018-09-23T08:56:49.680Z,100977.93
2018-09-23T08:59:18.167Z,100988.12
2018-09-23T09:01:46.500Z,100989.02
2018-09-23T09:04:14.628Z,100981.36
2018-09-23T09:06:42.806Z,100991.92
2018-09-23T09:09:10.986Z,100990.30
2018-09-23T09:11:39.261Z,100977.23
2018-09-23T09:14:07.442Z,100968.31
2018-09-23T09:16:35.694Z,100965.84
2018-09-23T09:19:03.843Z,100951.89
2018-09-23T09:21:32.324Z,100947.74
2018-09-23T09:24:00.474Z,100951.95
2018-09-23T09:26:28.678Z,100941.80
2018-09-23T09:28:56.964Z,100943.51
2018-09-23T09:31:25.164Z,100942.00
2018-09-23T09:33:53.344Z,100930.45
2018-09-23T09:36:21.571Z,100933.84
2018-09-23T09:38:49.818Z,100924.64
2018-09-23T09:41:18.011Z,100926.73
2018-09-23T09:43:46.690Z,100925.06
2018-09-23T09:46:14.867Z,100939.40
2018-09-23T09:48:43.112Z,100940.97
2018-09-23T09:51:11.652Z,100942.31
2018-09-23T09:53:40.005Z,100951.60
2018-09-23T09:56:08.211Z,100943.59
2018-09-23T09:58:36.981Z,100948.64
2018-09-23T10:01:06.219Z,100941.34
2018-09-23T10:03:35.513Z,100951.45
2018-09-23T10:06:03.712Z,100939.87
2018-09-23T10:08:32.126Z,100929.58
2018-09-23T10:11:00.342Z,100910.73
2018-09-23T10:13:28.608Z,100891.52
2018-09-23T10:15:58.897Z,100891.59
2018-09-23T10:18:27.802Z,100891.30
2018-09-23T10:20:56.643Z,100876.62
2018-09-23T10:23:24.900Z,100875.71
2018-09-23T10:25:53.026Z,100880.81
2018-09-23T10:28:21.441Z,100879.62
2018-09-23T10:30:49.703Z,100861.52
2018-09-23T10:33:17.893Z,100858.41
2018-09-23T10:35:46.085Z,100855.04
2018-09-23T10:38:14.364Z,100856.08
2018-09-23T10:40:42.564Z,100852.69
2018-09-23T10:43:10.802Z,100859.52
2018-09-23T10:45:38.937Z,100846.38
2018-09-23T10:48:07.387Z,100840.26
2018-09-23T10:50:36.436Z,100807.73
2018-09-23T10:53:05.021Z,100791.90
2018-09-23T10:55:33.347Z,100787.47
2018-09-23T10:58:02.778Z,100790.48
2018-09-23T11:00:33.101Z,100795.86
2018-09-23T11:03:04.552Z,100800.39
2018-09-23T11:05:38.542Z,100805.08
2018-09-23T11:08:07.791Z,100801.44
2018-09-23T11:10:36.170Z,100799.89
2018-09-23T11:13:09.449Z,100789.55
2018-09-23T11:15:44.089Z,100788.73
2018-09-23T11:18:19.126Z,100795.95
2018-09-23T11:20:49.426Z,100787.86
2018-09-23T11:23:18.016Z,100785.63
2018-09-23T11:25:46.164Z,100781.45
2018-09-23T11:28:14.436Z,100776.37
2018-09-23T11:30:42.920Z,100767.54
2018-09-23T11:33:11.184Z,100757.57
2018-09-23T11:35:39.496Z,100735.61
2018-09-23T11:38:07.767Z,100731.20
2018-09-23T11:40:36.063Z,100732.42
2018-09-23T11:43:04.439Z,100726.84
2018-09-23T11:45:32.681Z,100722.33
2018-09-23T11:48:01.001Z,100711.39
2018-09-23T11:50:29.254Z,100710.52
2018-09-23T11:52:57.580Z,100719.97
2018-09-23T11:55:25.780Z,100720.69
2018-09-23T11:57:54.744Z,100714.91
2018-09-23T12:00:23.882Z,100706.00
2018-09-23T12:02:52.355Z,100692.45
2018-09-23T12:05:20.739Z,100684.64
2018-09-23T12:07:49.148Z,100672.65
2018-09-23T12:10:17.555Z,100678.98
2018-09-23T12:12:45.744Z,100665.44
2018-09-23T12:15:14.072Z,100669.36
2018-09-23T12:17:42.318Z,100669.61
2018-09-23T12:20:11.048Z,100655.91
2018-09-23T12:22:39.316Z,100634.45
2018-09-23T12:25:07.657Z,100624.09
2018-09-23T12:27:35.879Z,100615.77
2018-09-23T12:30:04.045Z,100627.83
2018-09-23T12:32:32.179Z,100621.91
2018-09-23T12:35:00.501Z,100612.31
2018-09-23T12:37:28.811Z,100612.88
2018-09-23T12:39:56.960Z,100635.72
2018-09-23T12:42:25.220Z,100637.60
2018-09-23T12:44:53.415Z,100635.33
2018-09-23T12:47:21.725Z,100646.64
2018-09-23T12:49:50.050Z,100647.21
2018-09-23T12:52:18.333Z,100648.03
2018-09-23T12:54:46.557Z,100628.48
2018-09-23T12:57:14.836Z,100617.84
2018-09-23T12:59:43.022Z,100616.72
2018-09-23T13:02:11.244Z,100608.79
2018-09-23T13:04:39.490Z,100611.83
2018-09-23T13:07:07.751Z,100615.47
2018-09-23T13:09:35.978Z,100607.28
2018-09-23T13:12:04.400Z,100596.91
2018-09-23T13:14:32.709Z,100596.73
2018-09-23T13:17:01.070Z,100586.30
2018-09-23T13:19:29.644Z,100592.89
2018-09-23T13:21:57.840Z,100595.16
2018-09-23T13:24:26.323Z,100585.92
2018-09-23T13:26:54.699Z,100582.98
2018-09-23T13:29:22.897Z,100581.09
2018-09-23T13:31:51.122Z,100571.00
2018-09-23T13:34:19.396Z,100559.72
2018-09-23T13:36:47.622Z,100553.78
2018-09-23T13:39:15.841Z,100541.73
2018-09-23T13:41:44.321Z,100546.02
2018-09-23T13:44:12.858Z,100532.62
2018-09-23T13:46:42.143Z,100527.41
2018-09-23T13:49:10.530Z,100513.78
2018-09-23T13:51:38.816Z,100499.80
2018-09-23T13:54:07.079Z,100494.20
2018-09-23T13:56:35.266Z,100480.69
2018-09-23T13:59:05.227Z,100478.95
2018-09-23T14:01:35.411Z,100480.05
2018-09-23T14:04:03.891Z,100476.77
2018-09-23T14:06:32.180Z,100476.03
2018-09-23T14:09:00.714Z,100413.27
2018-09-23T14:11:28.999Z,100365.36
2018-09-23T14:13:57.208Z,100372.89
2018-09-23T14:16:25.489Z,100356.14
2018-09-23T14:18:53.749Z,100331.51
2018-09-23T14:21:21.970Z,100331.52
2018-09-23T14:23:50.611Z,100320.13
2018-09-23T14:26:21.479Z,100286.14
2018-09-23T14:28:50.577Z,100250.66
2018-09-23T14:31:18.794Z,100239.52
2018-09-23T14:33:47.212Z,100258.27
2018-09-23T14:36:15.703Z,100283.16
2018-09-23T14:38:44.011Z,100307.50
2018-09-23T14:41:16.857Z,100360.20
2018-09-23T14:43:45.089Z,100361.72
2018-09-23T14:46:13.426Z,100355.59
2018-09-23T14:48:42.386Z,100356.99
2018-09-23T14:51:10.720Z,100354.47
2018-09-23T14:53:39.012Z,100344.59
2018-09-23T14:56:12.334Z,100332.62
2018-09-23T14:58:41.183Z,100306.63
2018-09-23T15:01:09.487Z,100289.70
2018-09-23T15:03:37.800Z,100313.24
2018-09-23T15:06:06.273Z,100321.05
2018-09-23T15:08:34.773Z,100328.53
2018-09-23T15:11:03.636Z,100328.80
2018-09-23T15:13:31.960Z,100304.74
2018-09-23T15:16:00.260Z,100309.25
2018-09-23T15:18:28.534Z,100320.12
2018-09-23T15:20:56.844Z,100338.64
2018-09-23T15:23:25.158Z,100344.66
2018-09-23T15:25:53.373Z,100327.06
2018-09-23T15:28:22.085Z,100298.14
2018-09-23T15:30:50.415Z,100282.84
2018-09-23T15:33:18.802Z,100265.73
2018-09-23T15:35:47.286Z,100271.47
2018-09-23T15:38:15.652Z,100282.21
2018-09-23T15:40:44.741Z,100277.71
2018-09-23T15:43:13.129Z,100261.73
2018-09-23T15:45:41.617Z,100266.27
2018-09-23T15:48:10.051Z,100284.26
2018-09-23T15:50:38.283Z,100268.23
2018-09-23T15:53:06.665Z,100265.69
2018-09-23T15:55:34.934Z,100258.47
2018-09-23T15:58:03.212Z,100250.23
2018-09-23T16:00:31.448Z,100257.29
2018-09-23T16:02:59.695Z,100245.20
2018-09-23T16:05:27.967Z,100240.92
2018-09-23T16:07:56.405Z,100229.61
2018-09-23T16:10:25.109Z,100224.30
2018-09-23T16:12:53.465Z,100219.75
2018-09-23T16:15:21.810Z,100229.94
2018-09-23T16:17:50.125Z,100232.90
2018-09-23T16:20:18.554Z,100238.59
2018-09-23T16:22:47.243Z,100236.73
2018-09-23T16:25:15.540Z,100231.69
2018-09-23T16:27:44.083Z,100216.81
2018-09-23T16:30:12.649Z,100218.71
2018-09-23T16:32:40.906Z,100213.92
2018-09-23T16:35:09.420Z,100200.02
2018-09-23T16:37:38.017Z,100197.42
2018-09-23T16:40:06.348Z,100184.10
2018-09-23T16:42:34.638Z,100177.27
2018-09-23T16:45:02.963Z,100152.81
2018-09-23T16:47:31.273Z,100123.41
2018-09-23T16:52:34.103Z,100064.33
2018-09-23T16:55:02.494Z,100080.23
2018-09-23T16:57:30.698Z,100072.59
2018-09-23T16:59:59.007Z,100093.91
2018-09-23T17:02:27.232Z,100092.08
2018-09-23T17:04:55.468Z,100107.44
2018-09-23T17:07:24.498Z,100148.14
2018-09-23T17:09:53.139Z,100177.46
2018-09-23T17:12:22.186Z,100181.45
2018-09-23T17:14:56.500Z,100181.73
2018-09-23T17:17:24.843Z,100178.45
2018-09-23T17:19:53.141Z,100181.14
2018-09-23T17:22:22.009Z,100141.58
2018-09-23T17:24:50.327Z,100133.00
2018-09-23T17:27:18.747Z,100167.55
2018-09-23T17:29:47.060Z,100231.42
2018-09-23T17:32:15.440Z,100253.09
2018-09-23T17:34:44.457Z,100223.31
2018-09-23T17:37:12.716Z,100204.70
2018-09-23T17:39:40.962Z,100164.91
2018-09-23T17:42:09.347Z,100195.81
2018-09-23T17:44:38.020Z,100222.23
2018-09-23T17:47:06.738Z,100246.83
2018-09-23T17:49:37.351Z,100272.23
2018-09-23T17:52:10.668Z,100254.37
2018-09-23T17:54:39.661Z,100205.21
2018-09-23T17:57:07.911Z,100226.19
2018-09-23T17:59:36.242Z,100284.19
2018-09-23T18:02:04.729Z,100304.59
2018-09-23T18:04:32.981Z,100318.03
2018-09-23T18:07:01.418Z,100308.06
2018-09-23T18:09:30.293Z,100314.30
2018-09-23T18:11:59.448Z,100258.40
2018-09-23T18:14:28.370Z,100230.31
2018-09-23T18:16:56.877Z,100234.00
2018-09-23T18:19:25.357Z,100272.47
2018-09-23T18:21:53.637Z,100310.11
2018-09-23T18:24:21.921Z,100357.69
2018-09-23T18:26:50.265Z,100378.27
2018-09-23T18:29:18.715Z,100405.44
2018-09-23T18:31:47.009Z,100444.94
2018-09-23T18:34:15.915Z,100463.14
2018-09-23T18:36:44.260Z,100475.72
2018-09-23T18:39:12.684Z,100495.55
2018-09-23T18:41:41.797Z,100505.72
2018-09-23T18:44:11.856Z,100495.34
2018-09-23T18:46:40.859Z,100458.56
2018-09-23T18:49:09.875Z,100425.49
2018-09-23T18:51:38.416Z,100431.96
2018-09-23T18:54:12.086Z,100424.11
2018-09-23T18:56:40.644Z,100405.83
2018-09-23T18:59:09.104Z,100417.27
2018-09-23T19:01:37.420Z,100401.05
2018-09-23T19:04:05.809Z,100398.09
2018-09-23T19:06:35.118Z,100386.69
2018-09-23T19:09:04.749Z,100383.73
2018-09-23T19:11:33.567Z,100365.01
2018-09-23T19:14:02.141Z,100356.72
2018-09-23T19:16:32.724Z,100367.69
2018-09-23T19:19:01.074Z,100391.76
2018-09-23T19:21:30.103Z,100434.38
2018-09-23T19:23:59.262Z,100438.53
2018-09-23T19:26:27.881Z,100493.09
2018-09-23T19:28:57.072Z,100521.28
2018-09-23T19:31:25.709Z,100535.77
2018-09-23T19:33:54.721Z,100530.42
2018-09-23T19:36:23.181Z,100532.41
2018-09-23T19:38:52.369Z,100527.25
2018-09-23T19:41:20.633Z,100530.78
2018-09-23T19:43:48.892Z,100536.92
2018-09-23T19:46:17.235Z,100542.55
2018-09-23T19:48:45.486Z,100545.89
2018-09-23T19:51:13.845Z,100534.31
2018-09-23T19:53:42.134Z,100533.11
2018-09-23T19:56:11.072Z,100533.38
2018-09-23T19:58:40.216Z,100539.91
2018-09-23T20:01:08.491Z,100535.80
2018-09-23T20:03:36.821Z,100526.80
2018-09-23T20:06:06.149Z,100552.34
2018-09-23T20:08:34.364Z,100556.13
2018-09-23T20:11:02.807Z,100557.00
2018-09-23T20:13:31.218Z,100573.51
2018-09-23T20:15:59.676Z,100590.31
2018-09-23T20:18:29.285Z,100600.17
2018-09-23T20:20:57.844Z,100603.48
2018-09-23T20:23:26.972Z,100605.03
2018-09-23T20:25:55.360Z,100592.91
2018-09-23T20:28:26.589Z,100594.62
2018-09-23T20:30:54.864Z,100594.81
2018-09-23T20:33:23.629Z,100605.36
2018-09-23T20:35:52.069Z,100618.42
2018-09-23T20:38:20.514Z,100633.89
2018-09-23T20:40:49.008Z,100635.29
2018-09-23T20:43:19.731Z,100637.86
2018-09-23T20:45:48.527Z,100654.00
2018-09-23T20:48:16.965Z,100658.00
2018-09-23T20:50:45.226Z,100668.47
2018-09-23T20:53:13.570Z,100678.51
2018-09-23T20:55:48.376Z,100678.96
2018-09-23T20:58:17.477Z,100686.39
2018-09-23T21:00:45.724Z,100702.90
2018-09-23T21:03:14.104Z,100708.78
2018-09-23T21:05:42.459Z,100710.69
2018-09-23T21:08:10.727Z,100701.27
2018-09-23T21:10:39.583Z,100703.61
2018-09-23T21:13:08.185Z,100702.48
2018-09-23T21:15:36.579Z,100692.95
2018-09-23T21:18:04.916Z,100705.99
2018-09-23T21:20:33.246Z,100703.97
2018-09-23T21:23:02.169Z,100701.02
2018-09-23T21:25:30.691Z,100710.70
2018-09-23T21:27:58.888Z,100712.83
2018-09-23T21:30:27.625Z,100721.07
2018-09-23T21:32:56.061Z,100727.09
2018-09-23T21:35:24.563Z,100736.17
2018-09-23T21:37:53.128Z,100735.75
2018-09-23T21:40:21.453Z,100737.92
2018-09-23T21:42:49.878Z,100739.53
2018-09-23T21:45:18.252Z,100734.63
2018-09-23T21:47:46.603Z,100755.02
2018-09-23T21:50:14.975Z,100758.22
2018-09-23T21:52:43.222Z,100768.34
2018-09-23T21:55:11.791Z,100784.75
2018-09-23T21:57:40.279Z,100791.20
2018-09-23T22:00:09.406Z,100796.05
2018-09-23T22:02:38.101Z,100796.64
2018-09-23T22:05:06.393Z,100804.36
2018-09-23T22:07:34.763Z,100810.67
2018-09-23T22:10:03.073Z,100821.72
2018-09-23T22:12:32.428Z,100823.47
2018-09-23T22:15:01.358Z,100819.82
2018-09-23T22:17:29.893Z,100822.23
2018-09-23T22:19:58.179Z,100819.33
2018-09-23T22:22:26.363Z,100825.12
2018-09-23T22:24:54.671Z,100827.67
2018-09-23T22:27:22.916Z,100827.61
2018-09-23T22:29:51.077Z,100832.48
2018-09-23T22:32:19.293Z,100833.33
2018-09-23T22:34:47.439Z,100847.36
2018-09-23T22:37:15.583Z,100854.97
2018-09-23T22:39:43.759Z,100853.77
2018-09-23T22:42:11.986Z,100859.80
2018-09-23T22:44:40.197Z,100860.68
2018-09-23T22:47:08.886Z,100857.84
2018-09-23T22:49:37.133Z,100873.20
2018-09-23T22:52:05.332Z,100870.70
2018-09-23T22:54:33.509Z,100877.16
2018-09-23T22:57:01.648Z,100877.68
2018-09-23T22:59:30.123Z,100876.59
2018-09-23T23:01:58.373Z,100881.25
2018-09-23T23:04:26.724Z,100885.28
2018-09-23T23:06:54.863Z,100891.35
2018-09-23T23:09:23.379Z,100894.48
2018-09-23T23:11:51.551Z,100899.14
2018-09-23T23:14:19.971Z,100903.27
2018-09-23T23:16:48.169Z,100915.75
2018-09-23T23:19:16.564Z,100920.17
2018-09-23T23:21:45.371Z,100916.51
2018-09-23T23:24:13.779Z,100931.66
2018-09-23T23:26:42.163Z,100934.95
2018-09-23T23:29:10.522Z,100936.36
2018-09-23T23:31:39.046Z,100939.56
2018-09-23T23:34:07.397Z,100946.50
2018-09-23T23:36:35.571Z,100955.55
2018-09-23T23:39:04.963Z,100966.91
2018-09-23T23:41:33.848Z,100962.59
2018-09-23T23:44:02.273Z,100981.47
2018-09-23T23:46:30.495Z,100988.68
2018-09-23T23:48:58.676Z,100988.88
2018-09-23T23:51:26.796Z,100993.42
2018-09-23T23:53:54.977Z,100999.05
2018-09-23T23:56:23.171Z,101006.95
2018-09-23T23:58:51.528Z,101007.84
